Time;durP1;ratioP1;P1;durP2;ratioP2;P2;SDS_P1;SDS_P2;PMS_P1;PMS_P2;Temp;Humidity;BMP_temperature;BMP_pressure;BME280_temperature;BME280_humidity;BME280_pressure;Samples;Min_cycle;Max_cycle;Signal;HPM_P1;HPM_P2
2021/08/03 00:01:12;;;;;;;1.55;1.00;;;24.50;56.80;;;;;;5051156;28;20067;-45
2021/08/03 00:03:40;;;;;;;1.50;1.08;;;24.50;56.70;;;;;;5053598;28;20174;-46
2021/08/03 00:06:11;;;;;;;2.83;0.98;;;24.50;56.50;;;;;;5053114;28;20043;-45
2021/08/03 00:08:41;;;;;;;1.52;0.85;;;24.50;56.50;;;;;;5050564;28;20534;-45
2021/08/03 00:11:08;;;;;;;1.50;1.00;;;24.50;56.50;;;;;;5049749;28;20548;-45
2021/08/03 00:13:35;;;;;;;2.03;0.90;;;24.50;56.60;;;;;;5052431;28;20108;-45
2021/08/03 00:16:08;;;;;;;1.48;1.10;;;24.50;56.60;;;;;;5055163;28;20055;-48
2021/08/03 00:18:36;;;;;;;1.40;0.80;;;24.50;56.50;;;;;;5051972;28;20029;-45
2021/08/03 00:21:02;;;;;;;1.75;1.20;;;24.50;56.50;;;;;;5052479;28;20439;-46
2021/08/03 00:23:28;;;;;;;1.92;0.90;;;24.50;56.60;;;;;;5052164;28;20056;-45
2021/08/03 00:25:55;;;;;;;4.43;0.80;;;24.50;56.60;;;;;;5065615;28;20040;-45
2021/08/03 00:28:21;;;;;;;3.40;1.00;;;24.50;56.70;;;;;;5050301;28;20937;-45
2021/08/03 00:30:47;;;;;;;3.13;0.80;;;24.50;56.90;;;;;;5061412;28;20033;-45
2021/08/03 00:33:14;;;;;;;1.42;0.90;;;24.40;56.40;;;;;;5070013;28;20032;-45
2021/08/03 00:35:40;;;;;;;1.67;0.98;;;24.50;56.40;;;;;;5067966;28;20358;-45
2021/08/03 00:38:06;;;;;;;1.83;0.80;;;24.40;56.50;;;;;;5055340;28;20027;-45
2021/08/03 00:40:36;;;;;;;1.52;0.70;;;24.40;56.40;;;;;;5069387;28;20493;-45
2021/08/03 00:43:01;;;;;;;2.22;0.80;;;24.40;56.60;;;;;;5061527;28;20032;-51
2021/08/03 00:45:27;;;;;;;1.98;1.05;;;24.40;56.50;;;;;;5072310;28;20032;-45
2021/08/03 00:47:53;;;;;;;1.80;0.82;;;24.40;56.20;;;;;;5068859;28;20029;-45
2021/08/03 00:50:19;;;;;;;1.65;0.75;;;24.40;56.40;;;;;;5055148;28;20021;-45
2021/08/03 00:52:45;;;;;;;1.92;0.82;;;24.40;56.30;;;;;;5054869;28;20573;-45
2021/08/03 00:55:11;;;;;;;1.48;0.90;;;24.40;56.40;;;;;;5054373;28;20386;-45
2021/08/03 00:57:39;;;;;;;3.78;0.90;;;24.40;56.30;;;;;;5062971;28;20474;-45
2021/08/03 01:00:06;;;;;;;1.20;0.80;;;24.40;56.20;;;;;;5064908;28;20409;-45
2021/08/03 01:02:32;;;;;;;2.25;0.80;;;24.40;56.20;;;;;;5058832;28;20106;-45
2021/08/03 01:04:57;;;;;;;2.40;0.98;;;24.40;56.20;;;;;;5073962;28;20032;-45
2021/08/03 01:07:35;;;;;;;0.98;0.77;;;24.40;56.30;;;;;;5055145;28;20367;-45
2021/08/03 01:10:27;;;;;;;2.75;0.90;;;24.40;56.20;;;;;;5055004;28;20033;-52
2021/08/03 01:12:59;;;;;;;1.45;0.75;;;24.40;56.20;;;;;;5064195;28;20032;-45
2021/08/03 01:15:32;;;;;;;1.30;0.80;;;24.40;56.20;;;;;;5056919;28;20050;-45
2021/08/03 01:18:16;;;;;;;1.23;0.80;;;24.40;56.30;;;;;;5055737;28;20086;-49
2021/08/03 01:21:13;;;;;;;1.33;1.02;;;24.40;56.30;;;;;;5073396;28;20041;-45
2021/08/03 01:24:02;;;;;;;3.42;0.93;;;24.40;56.50;;;;;;5074305;28;20084;-45
2021/08/03 01:27:05;;;;;;;1.55;0.85;;;24.40;56.40;;;;;;5047677;28;20080;-45
2021/08/03 01:29:31;;;;;;;1.40;0.85;;;24.30;56.10;;;;;;5055092;28;20051;-45
2021/08/03 01:32:04;;;;;;;3.60;1.00;;;24.40;56.30;;;;;;5054587;28;20390;-45
2021/08/03 01:34:32;;;;;;;2.40;0.90;;;24.30;56.20;;;;;;5050938;28;20082;-45
2021/08/03 01:36:58;;;;;;;1.10;0.80;;;24.30;56.10;;;;;;5051869;28;20024;-45
2021/08/03 01:39:30;;;;;;;1.23;0.80;;;24.40;56.20;;;;;;5050374;28;20025;-45
2021/08/03 01:41:58;;;;;;;1.65;0.80;;;24.30;56.20;;;;;;5053893;28;20031;-45
2021/08/03 01:44:24;;;;;;;2.13;0.70;;;24.30;56.20;;;;;;5053874;28;20128;-47
2021/08/03 01:46:51;;;;;;;0.90;0.70;;;24.30;56.30;;;;;;5053261;28;20068;-46
2021/08/03 01:49:20;;;;;;;2.58;0.82;;;24.30;56.20;;;;;;5051423;28;20039;-45
2021/08/03 01:51:47;;;;;;;1.35;0.70;;;24.30;56.20;;;;;;5054949;28;20450;-45
2021/08/03 01:54:14;;;;;;;2.70;0.70;;;24.30;56.30;;;;;;5071159;28;20436;-45
2021/08/03 01:56:42;;;;;;;1.40;0.90;;;24.30;56.10;;;;;;5072340;28;20059;-45
2021/08/03 01:59:10;;;;;;;1.67;0.82;;;24.30;56.20;;;;;;5069962;28;20076;-48
2021/08/03 02:01:37;;;;;;;1.38;0.80;;;24.30;56.20;;;;;;5061350;28;20082;-45
2021/08/03 02:04:03;;;;;;;2.15;0.88;;;24.30;56.70;;;;;;5066039;28;20486;-52
2021/08/03 02:06:30;;;;;;;1.75;0.65;;;24.30;56.20;;;;;;5053768;28;20045;-47
2021/08/03 02:09:00;;;;;;;1.15;0.90;;;24.30;56.00;;;;;;5056868;28;20111;-45
2021/08/03 02:11:30;;;;;;;1.52;0.77;;;24.30;56.10;;;;;;5072041;28;20025;-45
2021/08/03 02:13:59;;;;;;;1.05;0.70;;;24.30;56.00;;;;;;5046128;28;20061;-45
2021/08/03 02:16:24;;;;;;;1.95;1.08;;;24.30;56.10;;;;;;5052715;28;20025;-45
2021/08/03 02:18:51;;;;;;;1.48;0.77;;;24.30;55.80;;;;;;5068271;28;20025;-45
2021/08/03 02:21:22;;;;;;;1.92;0.85;;;24.30;56.00;;;;;;5068138;28;20531;-45
2021/08/03 02:23:48;;;;;;;2.10;0.90;;;24.30;55.90;;;;;;5053750;28;20029;-45
2021/08/03 02:26:14;;;;;;;2.55;1.00;;;24.30;56.10;;;;;;5052486;28;20036;-45
2021/08/03 02:28:40;;;;;;;1.17;1.05;;;24.30;56.10;;;;;;5053509;28;20037;-46
2021/08/03 02:31:20;;;;;;;1.00;0.70;;;24.30;55.80;;;;;;5067140;28;20043;-45
2021/08/03 02:33:55;;;;;;;1.23;0.95;;;24.30;56.30;;;;;;5054370;28;20103;-46
2021/08/03 02:36:22;;;;;;;1.83;0.70;;;24.30;56.00;;;;;;5052189;28;20107;-46
2021/08/03 02:38:59;;;;;;;1.40;0.85;;;24.30;56.10;;;;;;5069282;28;20108;-45
2021/08/03 02:41:29;;;;;;;0.93;0.82;;;24.30;55.70;;;;;;5044757;28;20128;-45
2021/08/03 02:43:55;;;;;;;1.58;0.90;;;24.30;55.80;;;;;;5061190;28;20048;-45
2021/08/03 02:46:23;;;;;;;1.02;0.75;;;24.30;55.70;;;;;;5053059;28;21042;-45
2021/08/03 02:49:01;;;;;;;0.88;0.68;;;24.30;55.90;;;;;;5052871;28;20352;-45
2021/08/03 02:51:30;;;;;;;1.02;0.88;;;24.30;55.80;;;;;;5052254;28;20138;-45
2021/08/03 02:54:00;;;;;;;1.45;0.80;;;24.30;55.90;;;;;;5070636;28;20020;-45
2021/08/03 02:56:28;;;;;;;0.70;0.70;;;24.30;55.90;;;;;;5071418;28;20028;-47
2021/08/03 02:59:10;;;;;;;3.63;0.90;;;24.30;55.90;;;;;;5062820;28;20025;-45
2021/08/03 03:01:38;;;;;;;2.60;0.77;;;24.30;55.60;;;;;;5060766;28;20159;-45
2021/08/03 03:04:11;;;;;;;1.25;0.80;;;24.30;55.50;;;;;;5056269;28;20028;-51
2021/08/03 03:06:38;;;;;;;2.03;0.93;;;24.30;55.40;;;;;;5070461;28;20060;-46
2021/08/03 03:09:04;;;;;;;0.88;0.70;;;24.30;55.60;;;;;;5052011;28;20111;-51
2021/08/03 03:11:31;;;;;;;2.70;1.00;;;24.30;55.50;;;;;;5068631;28;20676;-45
2021/08/03 03:13:58;;;;;;;1.95;0.90;;;24.30;55.50;;;;;;5062237;28;20104;-47
2021/08/03 03:16:26;;;;;;;1.15;0.65;;;24.30;55.50;;;;;;5054449;28;20105;-46
2021/08/03 03:18:56;;;;;;;1.20;0.85;;;24.30;55.50;;;;;;5053386;28;20115;-48
2021/08/03 03:21:23;;;;;;;1.23;0.70;;;24.30;55.40;;;;;;5057027;28;20035;-45
2021/08/03 03:23:51;;;;;;;1.88;0.77;;;24.30;55.60;;;;;;5054048;28;20040;-45
2021/08/03 03:26:23;;;;;;;1.58;0.70;;;24.30;55.40;;;;;;5063250;28;20032;-47
2021/08/03 03:28:50;;;;;;;0.63;0.55;;;24.30;55.70;;;;;;5067468;28;20442;-45
2021/08/03 03:31:17;;;;;;;1.13;0.90;;;24.30;55.30;;;;;;5065873;28;20039;-46
2021/08/03 03:33:43;;;;;;;2.20;0.90;;;24.30;55.40;;;;;;5051856;28;20028;-46
2021/08/03 03:36:11;;;;;;;0.93;0.80;;;24.30;56.10;;;;;;5051432;28;20036;-45
2021/08/03 03:38:39;;;;;;;1.17;0.80;;;24.30;55.50;;;;;;5052768;28;20078;-45
2021/08/03 03:41:08;;;;;;;1.30;0.70;;;24.30;55.80;;;;;;5051330;28;20055;-52
2021/08/03 03:43:34;;;;;;;2.35;0.80;;;24.30;55.90;;;;;;5054798;28;20017;-46
2021/08/03 03:46:13;;;;;;;1.60;0.85;;;24.20;55.90;;;;;;5051253;28;20116;-47
2021/08/03 03:49:01;;;;;;;1.10;0.70;;;24.30;55.70;;;;;;5054005;28;20025;-46
2021/08/03 03:51:30;;;;;;;0.90;0.77;;;24.30;55.60;;;;;;5046750;28;20040;-45
2021/08/03 03:54:02;;;;;;;2.03;0.63;;;24.30;55.60;;;;;;5049011;28;20024;-47
2021/08/03 03:56:31;;;;;;;1.70;0.95;;;24.30;55.50;;;;;;5051852;28;20385;-47
2021/08/03 03:59:05;;;;;;;0.60;0.60;;;24.30;55.40;;;;;;5048780;28;20401;-45
2021/08/03 04:01:31;;;;;;;1.67;0.57;;;24.30;55.40;;;;;;5054775;28;20067;-46
2021/08/03 04:04:05;;;;;;;1.10;0.88;;;24.30;55.30;;;;;;5051845;28;20029;-48
2021/08/03 04:06:32;;;;;;;1.30;0.85;;;24.30;55.40;;;;;;5053465;28;20048;-46
2021/08/03 04:08:58;;;;;;;0.88;0.80;;;24.30;55.20;;;;;;5052361;28;20025;-45
2021/08/03 04:11:24;;;;;;;1.52;0.70;;;24.30;55.30;;;;;;5054337;28;20033;-45
2021/08/03 04:13:51;;;;;;;1.20;0.57;;;24.30;55.30;;;;;;5051354;28;20028;-45
2021/08/03 04:16:17;;;;;;;1.30;0.73;;;24.30;55.20;;;;;;5050515;28;20032;-45
2021/08/03 04:18:42;;;;;;;0.75;0.45;;;24.30;55.80;;;;;;5053733;28;20397;-45
2021/08/03 04:21:08;;;;;;;0.60;0.60;;;24.20;55.10;;;;;;5051413;28;20050;-52
2021/08/03 04:23:34;;;;;;;0.80;0.70;;;24.20;55.00;;;;;;5051476;28;20021;-45
2021/08/03 04:26:00;;;;;;;1.83;1.55;;;24.30;55.00;;;;;;5051615;28;20426;-45
2021/08/03 04:28:26;;;;;;;2.92;0.77;;;24.30;54.90;;;;;;5052949;28;20077;-45
2021/08/03 04:30:52;;;;;;;1.17;0.80;;;24.30;55.20;;;;;;5051897;28;20036;-45
2021/08/03 04:33:18;;;;;;;1.15;0.73;;;24.20;54.80;;;;;;5050538;28;20028;-45
2021/08/03 04:35:43;;;;;;;0.80;0.60;;;24.30;54.80;;;;;;5048418;28;20052;-45
2021/08/03 04:38:09;;;;;;;1.15;0.70;;;24.30;54.80;;;;;;5049111;28;20074;-53
2021/08/03 04:40:35;;;;;;;1.88;0.63;;;24.30;54.80;;;;;;5054590;28;20032;-45
2021/08/03 04:43:00;;;;;;;1.63;0.82;;;24.20;54.80;;;;;;5050974;28;20029;-45
2021/08/03 04:45:26;;;;;;;0.93;0.70;;;24.20;54.50;;;;;;5054312;28;20017;-45
2021/08/03 04:47:53;;;;;;;1.33;0.88;;;24.30;54.50;;;;;;5051798;28;20041;-45
2021/08/03 04:50:24;;;;;;;3.95;0.95;;;24.30;54.60;;;;;;5049805;28;20029;-46
2021/08/03 04:52:50;;;;;;;0.95;0.65;;;24.20;54.40;;;;;;5052965;28;20032;-47
2021/08/03 04:55:16;;;;;;;1.08;0.70;;;24.20;54.50;;;;;;5048437;28;20071;-45
2021/08/03 04:57:42;;;;;;;1.10;0.70;;;24.20;54.50;;;;;;5054365;28;20025;-45
2021/08/03 05:00:10;;;;;;;1.08;0.70;;;24.20;54.40;;;;;;5052231;28;20382;-53
2021/08/03 05:02:37;;;;;;;2.45;0.80;;;24.30;54.50;;;;;;5047756;28;20104;-45
2021/08/03 05:05:04;;;;;;;1.13;0.60;;;24.20;54.50;;;;;;5052419;28;20031;-45
2021/08/03 05:07:30;;;;;;;1.70;0.65;;;24.20;54.80;;;;;;5050457;28;20596;-45
2021/08/03 05:10:04;;;;;;;0.90;0.70;;;24.20;54.70;;;;;;5050922;28;20029;-45
2021/08/03 05:12:30;;;;;;;2.58;0.70;;;24.20;54.60;;;;;;5050046;28;20197;-45
2021/08/03 05:15:00;;;;;;;3.97;0.70;;;24.20;54.60;;;;;;5048430;28;20036;-45
2021/08/03 05:17:34;;;;;;;0.85;0.60;;;24.20;54.60;;;;;;5049597;28;20036;-45
2021/08/03 05:20:00;;;;;;;1.13;0.82;;;24.20;54.50;;;;;;5060045;28;20051;-46
2021/08/03 05:22:27;;;;;;;1.02;0.70;;;24.20;54.60;;;;;;5062902;28;20050;-45
2021/08/03 05:24:53;;;;;;;2.28;1.48;;;24.20;55.20;;;;;;5046566;28;20108;-45
2021/08/03 05:27:20;;;;;;;1.13;0.73;;;24.30;55.10;;;;;;5068984;28;20498;-48
2021/08/03 05:29:45;;;;;;;2.35;1.00;;;24.30;55.10;;;;;;5062993;28;20418;-45
2021/08/03 05:32:11;;;;;;;2.33;0.90;;;24.30;53.90;;;;;;5062947;28;20041;-52
2021/08/03 05:34:37;;;;;;;2.45;1.00;;;24.30;53.60;;;;;;5064791;28;20060;-46
2021/08/03 05:37:04;;;;;;;2.58;0.80;;;24.30;53.20;;;;;;5053659;28;20482;-45
2021/08/03 05:39:30;;;;;;;3.65;0.82;;;24.30;53.30;;;;;;5068658;28;20024;-44
2021/08/03 05:41:57;;;;;;;4.35;1.30;;;24.20;52.50;;;;;;5064077;28;20510;-47
2021/08/03 05:44:22;;;;;;;5.47;1.85;;;24.20;54.10;;;;;;5053321;28;20089;-44
2021/08/03 05:46:48;;;;;;;3.67;1.10;;;24.10;53.80;;;;;;5058061;28;20036;-45
2021/08/03 05:49:14;;;;;;;3.40;1.15;;;24.00;53.40;;;;;;5072833;28;20032;-46
2021/08/03 05:51:39;;;;;;;2.30;1.10;;;23.90;52.80;;;;;;5070692;28;20166;-45
2021/08/03 05:54:05;;;;;;;3.35;0.95;;;23.90;53.20;;;;;;5056190;28;20155;-45
2021/08/03 05:56:31;;;;;;;1.10;0.75;;;23.90;53.30;;;;;;5054257;28;20060;-45
2021/08/03 05:58:57;;;;;;;1.52;0.90;;;23.70;52.20;;;;;;5057642;28;20103;-45
2021/08/03 06:01:22;;;;;;;3.55;1.20;;;23.70;52.50;;;;;;5061962;28;20135;-44
2021/08/03 06:03:48;;;;;;;3.28;0.90;;;23.70;52.70;;;;;;5055204;28;20114;-47
2021/08/03 06:06:15;;;;;;;4.25;0.93;;;23.80;51.80;;;;;;5061382;28;20029;-49
2021/08/03 06:08:43;;;;;;;2.63;1.02;;;23.70;52.50;;;;;;5067885;28;20037;-44
2021/08/03 06:11:15;;;;;;;6.70;1.70;;;23.80;52.10;;;;;;5053502;28;20082;-51
2021/08/03 06:13:45;;;;;;;6.55;1.00;;;23.70;52.00;;;;;;5064434;28;20119;-45
2021/08/03 06:16:18;;;;;;;1.27;0.85;;;23.80;51.90;;;;;;5065945;28;20068;-55
2021/08/03 06:18:46;;;;;;;4.30;1.00;;;23.70;51.80;;;;;;5052803;28;20385;-45
2021/08/03 06:21:13;;;;;;;2.38;1.17;;;23.80;52.10;;;;;;5053027;28;20029;-52
2021/08/03 06:23:41;;;;;;;3.13;1.13;;;23.80;51.60;;;;;;5054560;28;20099;-46
2021/08/03 06:26:08;;;;;;;2.28;1.00;;;23.70;51.90;;;;;;5053153;28;20111;-46
2021/08/03 06:28:35;;;;;;;5.53;1.20;;;23.70;52.00;;;;;;5060504;28;20036;-47
2021/08/03 06:31:03;;;;;;;4.22;0.98;;;23.70;52.50;;;;;;5072159;28;20036;-46
2021/08/03 06:33:28;;;;;;;1.50;1.00;;;23.80;52.40;;;;;;5071563;28;20033;-47
2021/08/03 06:35:54;;;;;;;3.38;0.82;;;23.70;52.50;;;;;;5056807;28;20115;-45
2021/08/03 06:38:20;;;;;;;3.13;1.33;;;23.80;52.50;;;;;;5053259;28;20112;-47
2021/08/03 06:40:53;;;;;;;4.88;1.10;;;23.90;52.40;;;;;;5053148;28;20047;-46
2021/08/03 06:43:25;;;;;;;2.80;0.95;;;23.90;52.50;;;;;;5066551;28;20040;-49
2021/08/03 06:46:06;;;;;;;4.85;0.95;;;23.90;52.40;;;;;;5053304;28;20037;-46
2021/08/03 06:48:32;;;;;;;4.57;0.90;;;23.90;52.40;;;;;;5053451;28;20037;-48
2021/08/03 06:51:13;;;;;;;4.13;1.10;;;24.00;52.50;;;;;;5052950;28;20071;-48
2021/08/03 06:53:44;;;;;;;3.28;1.00;;;23.90;52.80;;;;;;5057944;28;20059;-46
2021/08/03 06:56:10;;;;;;;3.33;0.90;;;24.00;52.40;;;;;;5071292;28;20055;-51
2021/08/03 06:58:50;;;;;;;3.13;1.35;;;24.00;52.40;;;;;;5061237;28;20056;-46
2021/08/03 07:01:23;;;;;;;4.70;0.82;;;24.00;52.40;;;;;;5051994;28;20044;-45
2021/08/03 07:03:57;;;;;;;2.50;1.05;;;24.00;52.80;;;;;;5060229;28;20032;-46
2021/08/03 07:06:24;;;;;;;3.13;0.60;;;24.00;53.00;;;;;;5052582;28;20025;-45
2021/08/03 07:08:52;;;;;;;1.75;0.80;;;24.00;53.10;;;;;;5052465;28;20112;-45
2021/08/03 07:11:20;;;;;;;2.22;0.70;;;24.00;53.10;;;;;;5068491;28;20037;-47
2021/08/03 07:13:48;;;;;;;1.80;0.93;;;24.00;52.80;;;;;;5065003;28;20058;-45
2021/08/03 07:16:14;;;;;;;2.35;0.95;;;24.00;52.80;;;;;;5063360;28;20036;-53
2021/08/03 07:18:42;;;;;;;4.85;0.90;;;24.00;52.80;;;;;;5061542;28;20059;-45
2021/08/03 07:21:11;;;;;;;1.58;0.98;;;24.00;53.10;;;;;;5071756;28;20047;-46
2021/08/03 07:23:37;;;;;;;3.92;1.08;;;24.00;53.00;;;;;;5054332;28;20025;-46
2021/08/03 07:26:02;;;;;;;1.33;1.23;;;24.00;53.20;;;;;;5067392;28;20040;-45
2021/08/03 07:28:28;;;;;;;1.67;1.00;;;24.00;53.30;;;;;;5051348;28;20045;-47
2021/08/03 07:30:54;;;;;;;2.78;0.80;;;24.00;53.20;;;;;;5058191;28;20081;-45
2021/08/03 07:33:20;;;;;;;1.75;0.98;;;24.00;53.30;;;;;;5062502;28;20029;-46
2021/08/03 07:35:45;;;;;;;3.13;0.90;;;24.00;53.10;;;;;;5044005;28;20029;-45
2021/08/03 07:38:12;;;;;;;1.25;0.82;;;24.00;53.10;;;;;;5052191;28;20033;-46
2021/08/03 07:40:39;;;;;;;3.00;0.90;;;24.00;53.00;;;;;;5052880;28;20043;-46
2021/08/03 07:43:05;;;;;;;2.80;0.90;;;24.00;53.10;;;;;;5051918;28;20429;-46
2021/08/03 07:45:32;;;;;;;3.05;1.30;;;24.00;52.90;;;;;;5054275;28;20047;-45
2021/08/03 07:47:59;;;;;;;4.50;0.90;;;24.10;52.90;;;;;;5066779;28;20029;-47
2021/08/03 07:50:26;;;;;;;2.08;1.30;;;24.00;53.00;;;;;;5067451;28;20032;-45
2021/08/03 07:52:51;;;;;;;1.40;0.73;;;24.10;52.80;;;;;;5031687;28;20034;-45
2021/08/03 07:55:17;;;;;;;2.42;0.80;;;24.00;52.80;;;;;;5042661;28;20028;-52
2021/08/03 07:57:43;;;;;;;1.83;0.80;;;24.00;52.70;;;;;;5050415;28;20359;-45
2021/08/03 08:00:09;;;;;;;2.63;0.82;;;24.10;53.00;;;;;;5053761;28;20049;-45
2021/08/03 08:02:34;;;;;;;1.02;0.70;;;24.00;52.90;;;;;;5069645;28;20058;-45
2021/08/03 08:05:00;;;;;;;1.65;0.70;;;24.00;53.00;;;;;;5068100;28;20024;-46
2021/08/03 08:07:27;;;;;;;3.08;1.80;;;24.00;52.90;;;;;;5042175;28;20428;-45
2021/08/03 08:09:54;;;;;;;2.58;0.93;;;24.10;53.20;;;;;;5045621;28;20485;-46
2021/08/03 08:12:19;;;;;;;1.90;0.80;;;24.00;53.00;;;;;;5055394;28;20029;-45
2021/08/03 08:14:45;;;;;;;1.00;0.68;;;24.00;53.00;;;;;;5052641;28;20108;-45
2021/08/03 08:17:11;;;;;;;1.83;0.70;;;24.10;53.30;;;;;;5062112;28;20067;-45
2021/08/03 08:19:37;;;;;;;1.85;0.95;;;24.10;54.00;;;;;;5068664;28;20029;-47
2021/08/03 08:22:03;;;;;;;2.75;0.80;;;24.00;53.50;;;;;;5070729;28;20060;-46
2021/08/03 08:24:29;;;;;;;1.95;1.00;;;24.10;53.60;;;;;;5070215;28;20430;-45
2021/08/03 08:26:54;;;;;;;1.63;0.90;;;24.00;53.50;;;;;;5071026;28;20411;-45
2021/08/03 08:29:20;;;;;;;1.90;1.10;;;24.00;53.70;;;;;;5068783;28;20462;-46
2021/08/03 08:31:46;;;;;;;2.35;1.05;;;24.00;53.70;;;;;;5049109;28;20074;-45
2021/08/03 08:34:13;;;;;;;2.88;1.08;;;24.10;53.90;;;;;;5051539;28;20484;-45
2021/08/03 08:36:39;;;;;;;1.30;0.80;;;24.00;53.80;;;;;;5066985;28;20167;-45
2021/08/03 08:39:06;;;;;;;1.60;0.90;;;24.00;53.90;;;;;;5056729;28;20029;-45
2021/08/03 08:41:35;;;;;;;1.98;0.80;;;24.10;54.00;;;;;;5050552;28;20488;-45
2021/08/03 08:44:04;;;;;;;1.17;0.70;;;24.00;53.90;;;;;;5051232;28;20033;-45
2021/08/03 08:46:37;;;;;;;1.13;0.65;;;24.10;54.00;;;;;;5066758;28;20033;-46
2021/08/03 08:49:05;;;;;;;1.77;0.98;;;24.10;54.00;;;;;;5050951;28;20033;-46
2021/08/03 08:51:32;;;;;;;0.90;0.80;;;24.10;54.10;;;;;;5063431;28;20028;-45
2021/08/03 08:53:59;;;;;;;2.08;1.00;;;24.10;54.00;;;;;;5066584;28;20488;-46
2021/08/03 08:56:26;;;;;;;1.98;0.80;;;24.10;54.20;;;;;;5067685;28;20354;-45
2021/08/03 08:58:52;;;;;;;2.33;1.02;;;24.10;54.10;;;;;;5067355;28;20115;-45
2021/08/03 09:01:17;;;;;;;0.88;0.77;;;24.10;54.10;;;;;;5062982;28;20112;-53
2021/08/03 09:03:43;;;;;;;1.75;0.90;;;24.10;54.20;;;;;;5055698;28;20083;-46
2021/08/03 09:06:10;;;;;;;3.13;0.75;;;24.10;54.20;;;;;;5058216;28;20043;-45
2021/08/03 09:08:46;;;;;;;2.05;0.80;;;24.10;54.20;;;;;;5072525;28;20029;-45
2021/08/03 09:11:17;;;;;;;2.83;0.98;;;24.10;54.30;;;;;;5047898;28;20032;-45
2021/08/03 09:13:50;;;;;;;;;;;24.10;54.30;;;;;;5054972;28;20071;-47
2021/08/03 09:16:16;;;;;;;0.70;0.60;;;24.10;54.30;;;;;;5048125;28;19931;-53
2021/08/03 09:18:43;;;;;;;1.33;0.90;;;24.10;54.30;;;;;;5054256;28;20033;-46
2021/08/03 09:21:20;;;;;;;2.65;0.70;;;24.10;54.30;;;;;;5054740;28;20024;-46
2021/08/03 09:23:50;;;;;;;1.13;0.80;;;24.10;54.40;;;;;;5046543;28;20451;-45
2021/08/03 09:26:16;;;;;;;1.10;0.77;;;24.10;54.40;;;;;;5071825;28;20036;-45
2021/08/03 09:29:03;;;;;;;1.15;0.98;;;24.10;54.40;;;;;;5073431;28;20041;-45
2021/08/03 09:31:31;;;;;;;5.35;1.00;;;24.10;54.60;;;;;;5052901;28;20060;-45
2021/08/03 09:33:56;;;;;;;2.58;0.70;;;24.10;54.60;;;;;;5073494;28;20029;-48
2021/08/03 09:36:46;;;;;;;0.80;0.70;;;24.10;54.50;;;;;;5072000;28;20078;-46
2021/08/03 09:39:37;;;;;;;2.90;0.85;;;24.10;54.60;;;;;;5073498;28;20036;-46
2021/08/03 09:42:10;;;;;;;1.17;0.68;;;24.10;54.60;;;;;;5060068;28;20036;-45
2021/08/03 09:44:43;;;;;;;2.55;0.77;;;24.10;55.30;;;;;;5054609;28;20033;-45
2021/08/03 09:47:09;;;;;;;1.00;0.82;;;24.10;54.80;;;;;;5054078;28;20033;-45
2021/08/03 09:49:40;;;;;;;1.25;0.60;;;24.10;54.90;;;;;;5067429;28;20404;-45
2021/08/03 09:52:13;;;;;;;2.63;0.80;;;24.10;54.90;;;;;;5071852;28;20473;-45
2021/08/03 09:54:39;;;;;;;3.08;0.68;;;24.10;54.90;;;;;;5071050;28;20028;-45
2021/08/03 09:57:19;;;;;;;1.02;0.70;;;24.10;54.90;;;;;;5060598;28;20041;-45
2021/08/03 09:59:45;;;;;;;1.05;0.60;;;24.10;55.00;;;;;;5053746;28;20730;-45
2021/08/03 10:02:18;;;;;;;0.82;0.57;;;24.10;55.00;;;;;;5067658;28;20047;-45
2021/08/03 10:04:45;;;;;;;1.13;0.63;;;24.10;55.00;;;;;;5054532;28;20033;-45
2021/08/03 10:07:14;;;;;;;1.25;0.68;;;24.10;55.00;;;;;;5057836;28;20032;-47
2021/08/03 10:09:42;;;;;;;2.85;1.15;;;24.10;55.00;;;;;;5054203;28;20034;-45
2021/08/03 10:12:07;;;;;;;1.10;0.70;;;24.10;55.00;;;;;;5072229;28;20039;-45
2021/08/03 10:14:33;;;;;;;0.90;0.50;;;24.10;55.00;;;;;;5062714;28;20033;-45
2021/08/03 10:16:59;;;;;;;3.15;0.80;;;24.10;55.10;;;;;;5065260;28;20037;-45
2021/08/03 10:19:29;;;;;;;2.03;0.60;;;24.10;55.20;;;;;;5072432;28;20017;-51
2021/08/03 10:22:18;;;;;;;2.20;0.73;;;24.10;55.20;;;;;;5056268;28;20391;-45
2021/08/03 10:25:02;;;;;;;1.15;0.68;;;24.10;55.10;;;;;;5053937;28;20394;-45
2021/08/03 10:27:45;;;;;;;0.88;0.68;;;24.10;55.10;;;;;;5045104;28;20052;-47
2021/08/03 10:30:29;;;;;;;0.80;0.60;;;24.10;55.10;;;;;;5053396;28;20029;-45
2021/08/03 10:32:59;;;;;;;0.73;0.60;;;24.10;55.20;;;;;;5054217;28;20053;-45
2021/08/03 10:35:49;;;;;;;0.68;0.52;;;24.10;55.30;;;;;;5053717;28;20155;-50
2021/08/03 10:38:29;;;;;;;0.85;0.57;;;24.10;55.50;;;;;;5053519;28;20032;-45
2021/08/03 10:40:56;;;;;;;0.45;0.38;;;24.10;56.00;;;;;;5053179;28;20367;-45
2021/08/03 10:43:34;;;;;;;0.88;0.70;;;24.00;56.10;;;;;;5054083;28;20401;-53
2021/08/03 10:46:09;;;;;;;1.55;0.73;;;24.00;56.00;;;;;;5052844;28;20029;-46
2021/08/03 10:48:38;;;;;;;1.15;0.70;;;24.10;56.00;;;;;;5070898;28;20115;-45
2021/08/03 10:51:15;;;;;;;2.92;0.60;;;24.10;56.00;;;;;;5071150;28;20090;-46
2021/08/03 10:53:59;;;;;;;1.13;0.60;;;24.10;55.90;;;;;;5069805;28;20107;-45
2021/08/03 10:56:26;;;;;;;1.17;1.00;;;24.20;55.90;;;;;;5071121;28;20063;-46
2021/08/03 10:59:34;;;;;;;2.05;0.65;;;24.10;56.00;;;;;;5062168;28;20029;-45
2021/08/03 11:02:02;;;;;;;0.82;0.50;;;24.10;55.90;;;;;;5048428;28;20120;-45
2021/08/03 11:04:43;;;;;;;1.23;0.65;;;24.10;56.60;;;;;;5032459;28;20454;-45
2021/08/03 11:07:28;;;;;;;0.90;0.60;;;24.10;56.20;;;;;;5049128;28;20041;-46
2021/08/03 11:09:59;;;;;;;0.88;0.65;;;24.20;56.20;;;;;;5056272;28;20044;-45
2021/08/03 11:12:46;;;;;;;;;;;24.20;56.10;;;;;;5068129;28;20025;-52
2021/08/03 11:15:23;;;;;;;2.15;0.60;;;24.20;56.20;;;;;;5050416;28;19917;-45
2021/08/03 11:17:50;;;;;;;0.90;0.68;;;24.20;56.20;;;;;;5060815;28;20462;-46
2021/08/03 11:20:34;;;;;;;0.80;0.50;;;24.20;56.20;;;;;;5069308;28;20025;-46
2021/08/03 11:23:00;;;;;;;0.80;0.50;;;24.20;56.20;;;;;;5072035;28;20051;-45
2021/08/03 11:25:27;;;;;;;1.63;0.60;;;24.20;56.90;;;;;;5070688;28;20052;-52
2021/08/03 11:27:53;;;;;;;0.68;0.60;;;24.20;56.30;;;;;;5066766;28;20033;-45
2021/08/03 11:30:19;;;;;;;0.70;0.43;;;24.20;56.30;;;;;;5058090;28;20111;-45
2021/08/03 11:32:48;;;;;;;0.57;0.40;;;24.20;56.30;;;;;;5070498;28;20036;-46
2021/08/03 11:35:25;;;;;;;1.38;0.60;;;24.20;56.30;;;;;;5071157;28;20489;-47
2021/08/03 11:37:51;;;;;;;1.55;0.73;;;24.20;56.30;;;;;;5054533;28;20039;-47
2021/08/03 11:40:17;;;;;;;0.63;0.45;;;24.20;56.30;;;;;;5053186;28;20021;-45
2021/08/03 11:42:45;;;;;;;0.80;0.63;;;24.20;56.40;;;;;;5051366;28;20031;-45
2021/08/03 11:45:20;;;;;;;2.40;0.68;;;24.20;56.40;;;;;;5060093;28;20033;-45
2021/08/03 11:47:53;;;;;;;1.05;0.65;;;24.20;56.40;;;;;;5069469;28;20584;-46
2021/08/03 11:50:31;;;;;;;1.52;0.60;;;24.20;56.50;;;;;;5071355;28;20576;-45
2021/08/03 11:53:07;;;;;;;1.27;0.40;;;24.20;56.60;;;;;;5053967;28;20037;-45
2021/08/03 11:55:34;;;;;;;1.48;0.50;;;24.20;56.80;;;;;;5056480;28;20032;-47
2021/08/03 11:58:00;;;;;;;1.00;0.88;;;24.20;56.70;;;;;;5070143;28;20394;-45
2021/08/03 12:00:25;;;;;;;0.60;0.55;;;24.20;57.10;;;;;;5060961;28;20056;-52
2021/08/03 12:02:54;;;;;;;2.05;0.40;;;24.10;57.00;;;;;;5051220;28;20068;-45
2021/08/03 12:05:31;;;;;;;0.98;0.50;;;24.10;57.20;;;;;;5059067;28;20035;-46
2021/08/03 12:08:08;;;;;;;1.95;0.65;;;24.10;57.30;;;;;;5070113;28;20033;-46
2021/08/03 12:10:37;;;;;;;0.68;0.57;;;24.00;57.10;;;;;;5053741;28;20032;-45
2021/08/03 12:13:06;;;;;;;1.13;0.70;;;24.10;57.10;;;;;;5064806;28;20062;-45
2021/08/03 12:15:47;;;;;;;0.85;0.68;;;24.00;56.80;;;;;;5066029;28;20037;-45
2021/08/03 12:18:13;;;;;;;3.38;0.70;;;24.00;56.90;;;;;;5057456;28;20025;-45
2021/08/03 12:20:50;;;;;;;1.17;0.57;;;24.00;56.80;;;;;;5050201;28;20388;-49
2021/08/03 12:23:30;;;;;;;0.98;0.52;;;24.00;56.70;;;;;;5050588;28;20034;-45
2021/08/03 12:26:06;;;;;;;0.60;0.40;;;24.00;56.70;;;;;;5050305;28;20090;-45
2021/08/03 12:28:41;;;;;;;1.25;0.80;;;24.00;56.60;;;;;;5051551;28;20493;-46
2021/08/03 12:31:20;;;;;;;0.55;0.52;;;24.00;56.60;;;;;;5067534;28;20459;-45
2021/08/03 12:33:48;;;;;;;1.00;0.60;;;24.00;56.50;;;;;;5043991;28;20654;-45
2021/08/03 12:36:20;;;;;;;0.70;0.60;;;23.90;56.40;;;;;;5052404;28;20068;-45
2021/08/03 12:39:29;;;;;;;1.27;0.80;;;24.00;56.30;;;;;;5059824;28;20131;-45
2021/08/03 12:42:05;;;;;;;0.70;0.50;;;24.00;56.20;;;;;;5041711;28;20056;-45
2021/08/03 12:44:34;;;;;;;0.93;0.50;;;23.90;56.10;;;;;;5044965;28;20025;-47
2021/08/03 12:47:16;;;;;;;0.70;0.60;;;23.90;56.00;;;;;;5050831;28;20047;-45
2021/08/03 12:49:47;;;;;;;1.13;0.77;;;23.90;55.80;;;;;;5032406;28;20037;-45
2021/08/03 12:52:18;;;;;;;1.60;0.60;;;23.90;55.80;;;;;;5032898;28;20079;-46
2021/08/03 12:54:58;;;;;;;0.98;0.70;;;24.00;55.80;;;;;;5031249;28;20065;-46
2021/08/03 12:57:59;;;;;;;0.85;0.63;;;24.00;55.60;;;;;;5049920;28;20078;-46
2021/08/03 13:00:40;;;;;;;0.82;0.50;;;24.10;55.70;;;;;;5033832;28;20485;-44
2021/08/03 13:03:09;;;;;;;1.17;0.82;;;24.10;55.60;;;;;;5032976;28;20037;-44